Time;durP1;ratioP1;P1;durP2;ratioP2;P2;SDS_P1;SDS_P2;PMS_P1;PMS_P2;Temp;Humidity;BMP_temperature;BMP_pressure;BME280_temperature;BME280_humidity;BME280_pressure;Samples;Min_cycle;Max_cycle;Signal;HPM_P1;HPM_P2
2021/01/14 00:00:37;;;;;;;8.30;3.83;;;;;;;-1.98;87.77;95400.66;1792501;79;21301;-88
2021/01/14 00:03:12;;;;;;;9.45;5.28;;;;;;;-1.97;87.82;95385.36;1792475;79;21475;-88
2021/01/14 00:05:41;;;;;;;7.22;4.83;;;;;;;-1.97;87.87;95389.25;1792419;80;21118;-88
2021/01/14 00:08:10;;;;;;;7.58;3.60;;;;;;;-1.97;87.87;95386.66;1792332;80;21649;-88
2021/01/14 00:10:39;;;;;;;9.13;5.67;;;;;;;-1.97;87.84;95378.87;1792424;79;21503;-87
2021/01/14 00:13:07;;;;;;;10.35;5.37;;;;;;;-1.95;87.66;95378.16;1792348;80;21114;-88
2021/01/14 00:15:35;;;;;;;7.75;4.33;;;;;;;-1.97;87.58;95380.98;1792495;80;21527;-88
2021/01/14 00:18:03;;;;;;;9.88;3.98;;;;;;;-1.97;87.46;95379.69;1791953;79;21261;-88
2021/01/14 00:20:32;;;;;;;4.85;2.87;;;;;;;-1.95;87.35;95383.34;1792466;80;21242;-88
2021/01/14 00:22:59;;;;;;;6.20;3.70;;;;;;;-1.93;87.26;95363.91;1792358;80;21613;-88
2021/01/14 00:25:26;;;;;;;8.33;4.85;;;;;;;-1.91;87.15;95372.27;1792345;80;21084;-88
2021/01/14 00:27:54;;;;;;;5.37;3.45;;;;;;;-1.88;87.03;95371.80;1792388;80;21629;-88
2021/01/14 00:30:26;;;;;;;4.42;2.75;;;;;;;-1.86;86.96;95365.06;1792395;79;21513;-88
2021/01/14 00:32:56;;;;;;;7.58;4.50;;;;;;;-1.86;86.89;95363.26;1780650;79;21131;-88
2021/01/14 00:35:26;;;;;;;6.87;3.90;;;;;;;-1.84;86.86;95356.02;1791819;80;21246;-88
2021/01/14 00:37:54;;;;;;;11.57;5.35;;;;;;;-1.82;86.85;95358.41;1792645;80;21253;-88
2021/01/14 00:40:29;;;;;;;11.40;5.15;;;;;;;-1.84;86.81;95353.94;1792295;80;21110;-88
2021/01/14 00:43:00;;;;;;;12.55;4.90;;;;;;;-1.81;86.81;95357.39;1792439;80;21233;-88
2021/01/14 00:45:31;;;;;;;13.70;7.40;;;;;;;-1.83;86.76;95360.22;1779714;80;21111;-88
2021/01/14 00:48:00;;;;;;;9.25;5.70;;;;;;;-1.84;86.81;95354.72;1792051;80;21646;-87
2021/01/14 00:50:28;;;;;;;12.15;7.35;;;;;;;-1.87;86.92;95357.78;1792385;79;21257;-88
2021/01/14 00:52:56;;;;;;;14.40;7.65;;;;;;;-1.91;86.96;95361.88;1792309;80;21206;-88
2021/01/14 00:55:23;;;;;;;10.45;5.47;;;;;;;-1.94;87.00;95361.04;1792328;79;21107;-87
2021/01/14 00:57:50;;;;;;;10.93;6.28;;;;;;;-1.96;87.14;95354.50;1792324;80;21269;-87
2021/01/14 01:00:21;;;;;;;12.75;7.12;;;;;;;-2.01;87.12;95347.89;1792452;80;21115;-88
2021/01/14 01:02:52;;;;;;;12.60;5.78;;;;;;;-2.05;87.34;95350.17;1792389;80;21256;-88
2021/01/14 01:05:22;;;;;;;13.90;7.37;;;;;;;-2.07;87.48;95349.61;1792489;80;21238;-88
2021/01/14 01:07:52;;;;;;;12.00;6.22;;;;;;;-2.13;87.68;95346.11;1792317;80;21622;-88
2021/01/14 01:10:21;;;;;;;10.65;5.90;;;;;;;-2.14;87.79;95344.53;1792392;79;21111;-88
2021/01/14 01:12:54;;;;;;;8.90;5.47;;;;;;;-2.17;87.69;95341.61;1792316;79;21116;-88
2021/01/14 01:15:22;;;;;;;6.40;3.30;;;;;;;-2.17;87.84;95341.61;1784796;79;21119;-89
2021/01/14 01:17:51;;;;;;;10.43;5.87;;;;;;;-2.20;88.22;95339.48;1787388;80;21253;-88
2021/01/14 01:20:18;;;;;;;11.53;5.42;;;;;;;-2.23;88.05;95338.65;1792386;79;21111;-88
2021/01/14 01:22:45;;;;;;;7.72;4.22;;;;;;;-2.24;88.35;95328.77;1792365;79;21253;-88
2021/01/14 01:25:13;;;;;;;6.67;4.03;;;;;;;-2.24;88.39;95326.17;1792404;79;21258;-88
2021/01/14 01:27:40;;;;;;;9.90;4.20;;;;;;;-2.26;88.43;95324.80;1792372;79;21253;-88
2021/01/14 01:30:09;;;;;;;7.22;3.47;;;;;;;-2.26;88.47;95321.70;1789675;79;21265;-88
2021/01/14 01:32:36;;;;;;;4.22;3.08;;;;;;;-2.28;88.65;95317.25;1761162;80;21491;-88
2021/01/14 01:35:05;;;;;;;8.18;4.97;;;;;;;-2.29;88.69;95313.59;1766802;80;21091;-88
2021/01/14 01:37:32;;;;;;;6.87;3.22;;;;;;;-2.31;88.68;95310.44;1770856;80;21495;-88
2021/01/14 01:39:59;;;;;;;5.85;3.02;;;;;;;-2.32;88.87;95311.45;1770264;79;21480;-88
2021/01/14 01:42:26;;;;;;;5.50;3.62;;;;;;;-2.34;88.96;95303.12;1792420;80;21490;-88
2021/01/14 01:44:53;;;;;;;2.77;2.02;;;;;;;-2.40;89.00;95305.59;1792497;80;21483;-88
2021/01/14 01:47:20;;;;;;;9.88;4.03;;;;;;;-2.42;89.16;95298.55;1790838;79;21111;-88
2021/01/14 01:49:47;;;;;;;9.20;4.33;;;;;;;-2.45;89.19;95289.93;1792506;79;21618;-88
2021/01/14 01:52:14;;;;;;;5.87;3.42;;;;;;;-2.46;89.21;95290.95;1789607;79;21559;-88
2021/01/14 01:54:41;;;;;;;6.15;3.37;;;;;;;-2.48;89.07;95294.28;1792513;79;21135;-88
2021/01/14 01:57:09;;;;;;;5.25;3.17;;;;;;;-2.50;88.99;95289.84;1792401;80;21084;-88
2021/01/14 01:59:36;;;;;;;5.92;2.83;;;;;;;-2.50;89.08;95283.86;1792458;80;21115;-88
2021/01/14 02:02:28;;;;;;;3.40;2.10;;;;;;;-2.51;88.96;95292.15;1792460;79;21103;-88
2021/01/14 02:04:57;;;;;;;7.92;3.90;;;;;;;-2.49;89.00;95284.92;1770803;80;21108;-89
2021/01/14 02:07:57;;;;;;;3.00;2.72;;;;;;;-2.48;88.82;95287.80;1756334;80;21139;-88
2021/01/14 02:10:49;;;;;;;7.20;3.77;;;;;;;-2.48;88.78;95292.98;1751952;80;21139;-88
2021/01/14 02:13:45;;;;;;;6.75;3.55;;;;;;;-2.49;88.64;95292.70;1792312;80;21110;-89
2021/01/14 02:16:14;;;;;;;3.92;2.50;;;;;;;-2.50;88.57;95287.23;1792473;79;21162;-87
2021/01/14 02:18:43;;;;;;;6.55;3.60;;;;;;;-2.52;88.71;95285.39;1770059;80;21091;-88
2021/01/14 02:21:15;;;;;;;5.10;2.62;;;;;;;-2.51;88.58;95295.25;1792476;79;21103;-88
2021/01/14 02:24:04;;;;;;;5.65;3.02;;;;;;;-2.51;88.56;95297.85;1792509;79;21115;-88
2021/01/14 02:26:34;;;;;;;7.75;3.75;;;;;;;-2.51;88.47;95292.66;1792706;80;21097;-88
2021/01/14 02:29:01;;;;;;;4.62;2.75;;;;;;;-2.52;88.34;95292.38;1792558;80;21491;-88
2021/01/14 02:31:28;;;;;;;4.97;3.12;;;;;;;-2.54;88.26;95289.98;1792463;79;21103;-88
2021/01/14 02:33:57;;;;;;;5.95;3.12;;;;;;;-2.59;88.09;95282.11;1792455;80;21126;-88
2021/01/14 02:36:27;;;;;;;3.83;1.82;;;;;;;-2.61;88.01;95280.26;1792458;80;21155;-88
2021/01/14 02:38:55;;;;;;;4.65;2.45;;;;;;;-2.60;88.10;95281.05;1812893;78;21504;-88
2021/01/14 02:41:22;;;;;;;5.35;3.10;;;;;;;-2.59;88.02;95280.03;1794169;79;21487;-88
2021/01/14 02:43:50;;;;;;;7.67;3.27;;;;;;;-2.59;87.98;95282.63;1792483;80;21119;-88
2021/01/14 02:46:19;;;;;;;7.37;3.60;;;;;;;-2.61;87.91;95283.36;1792425;79;21123;-88
2021/01/14 02:49:06;;;;;;;4.90;2.87;;;;;;;-2.62;87.89;95279.98;1776514;80;21135;-88
2021/01/14 02:51:46;;;;;;;7.75;3.70;;;;;;;-2.59;88.01;95283.41;1792593;80;21463;-88
2021/01/14 02:54:15;;;;;;;4.55;2.67;;;;;;;-2.57;87.96;95282.67;1792578;80;21111;-88
2021/01/14 02:56:47;;;;;;;6.45;3.67;;;;;;;-2.53;88.06;95282.52;1792380;79;21483;-88
2021/01/14 02:59:15;;;;;;;4.50;2.72;;;;;;;-2.48;88.05;95280.02;1788692;80;21308;-88
2021/01/14 03:01:42;;;;;;;5.25;2.22;;;;;;;-2.44;88.06;95277.23;1799937;80;21099;-88
2021/01/14 03:04:09;;;;;;;7.45;4.00;;;;;;;-2.37;88.10;95278.92;1801121;80;21253;-88
2021/01/14 03:06:38;;;;;;;3.85;2.98;;;;;;;-2.35;87.98;95274.29;1805305;78;21242;-89
2021/01/14 03:09:06;;;;;;;6.28;3.77;;;;;;;-2.33;88.00;95273.04;1789072;79;21499;-88
2021/01/14 03:11:35;;;;;;;6.55;3.47;;;;;;;-2.34;87.89;95273.27;1781428;80;21107;-88
2021/01/14 03:14:03;;;;;;;6.67;4.03;;;;;;;-2.34;87.80;95271.97;1792609;79;21115;-88
2021/01/14 03:16:41;;;;;;;6.05;4.03;;;;;;;-2.33;87.71;95274.84;1791964;80;21151;-87
2021/01/14 03:19:08;;;;;;;6.87;3.80;;;;;;;-2.33;87.62;95264.47;1792450;80;21496;-88
2021/01/14 03:21:36;;;;;;;7.58;4.55;;;;;;;-2.32;87.52;95272.53;1792487;80;21132;-88
2021/01/14 03:24:03;;;;;;;8.15;4.40;;;;;;;-2.30;87.47;95266.08;1792478;80;21115;-88
2021/01/14 03:26:30;;;;;;;8.35;4.78;;;;;;;-2.28;87.33;95265.85;1792437;80;21463;-88
2021/01/14 03:28:57;;;;;;;7.90;3.90;;;;;;;-2.28;87.28;95265.34;1792347;79;21486;-88
2021/01/14 03:31:24;;;;;;;7.30;3.85;;;;;;;-2.24;87.29;95261.28;1767221;80;21534;-88
2021/01/14 03:33:51;;;;;;;6.72;4.33;;;;;;;-2.20;87.30;95253.81;1785001;80;21165;-88
2021/01/14 03:36:20;;;;;;;8.98;4.12;;;;;;;-2.18;87.23;95256.97;1792383;79;21277;-88
2021/01/14 03:38:48;;;;;;;8.93;4.15;;;;;;;-2.15;87.21;95257.28;1774374;80;21491;-88
2021/01/14 03:41:20;;;;;;;7.28;4.22;;;;;;;-2.11;87.18;95257.63;1800684;79;21129;-88
2021/01/14 03:43:47;;;;;;;5.40;3.47;;;;;;;-2.11;87.11;95253.73;1772672;80;21107;-88
2021/01/14 03:46:17;;;;;;;6.25;3.42;;;;;;;-2.18;87.07;95256.45;1803859;79;21167;-88
2021/01/14 03:48:48;;;;;;;6.60;3.90;;;;;;;-2.25;87.17;95255.00;1772632;80;21138;-88
2021/01/14 03:51:22;;;;;;;6.85;3.83;;;;;;;-2.32;87.30;95251.77;1804000;79;21628;-88
2021/01/14 03:53:53;;;;;;;7.95;3.75;;;;;;;-2.37;87.34;95255.06;1772589;80;21111;-88
2021/01/14 03:56:21;;;;;;;6.40;3.75;;;;;;;-2.41;87.49;95249.52;1803822;79;21284;-88
2021/01/14 03:58:48;;;;;;;6.50;4.00;;;;;;;-2.44;87.53;95253.09;1804146;79;21119;-89
2021/01/14 04:01:15;;;;;;;5.78;3.67;;;;;;;-2.44;87.59;95253.09;1777613;79;21277;-89
2021/01/14 04:03:44;;;;;;;7.60;4.42;;;;;;;-2.44;87.56;95257.77;1772586;80;21115;-89
2021/01/14 04:06:12;;;;;;;7.62;4.35;;;;;;;-2.41;87.54;95265.59;1803872;79;21481;-89
2021/01/14 04:08:40;;;;;;;7.10;4.12;;;;;;;-2.38;87.50;95259.97;1772517;80;21122;-88
2021/01/14 04:11:10;;;;;;;6.08;3.60;;;;;;;-2.37;87.47;95256.87;1803858;79;21261;-88
2021/01/14 04:13:37;;;;;;;4.87;3.50;;;;;;;-2.35;87.42;95259.50;1772656;80;21095;-89
2021/01/14 04:16:05;;;;;;;6.65;4.47;;;;;;;-2.35;87.34;95266.50;1803966;79;21154;-88
2021/01/14 04:18:32;;;;;;;8.43;4.45;;;;;;;-2.38;87.27;95260.48;1772451;80;21168;-88
2021/01/14 04:20:59;;;;;;;8.05;4.30;;;;;;;-2.40;87.25;95261.47;1803919;79;21111;-88
2021/01/14 04:23:25;;;;;;;7.50;4.20;;;;;;;-2.35;87.21;95266.50;1772514;80;21123;-88
2021/01/14 04:25:52;;;;;;;5.53;3.52;;;;;;;-2.32;87.19;95270.72;1803864;79;21502;-88
2021/01/14 04:28:21;;;;;;;7.45;3.90;;;;;;;-2.25;87.21;95269.27;1826130;78;21471;-88
2021/01/14 04:30:48;;;;;;;8.93;3.77;;;;;;;-2.23;87.12;95260.77;1804020;78;21241;-88
2021/01/14 04:33:16;;;;;;;7.12;4.00;;;;;;;-2.21;87.11;95260.03;1772588;80;21138;-89
2021/01/14 04:35:53;;;;;;;5.65;3.70;;;;;;;-2.16;87.09;95261.41;1803787;79;21308;-88
2021/01/14 04:38:23;;;;;;;8.53;3.95;;;;;;;-2.12;87.00;95257.33;1760583;80;21467;-88
2021/01/14 04:41:01;;;;;;;5.97;4.00;;;;;;;-2.08;86.99;95261.06;1787506;79;21308;-88
2021/01/14 04:43:32;;;;;;;7.92;4.47;;;;;;;-2.04;86.96;95258.78;1792357;80;21103;-88
2021/01/14 04:46:05;;;;;;;7.15;4.10;;;;;;;-2.05;86.83;95257.99;1792325;80;21124;-88
2021/01/14 04:48:40;;;;;;;7.40;3.70;;;;;;;-2.12;86.70;95258.63;1792031;79;21124;-88
2021/01/14 04:51:13;;;;;;;7.30;3.42;;;;;;;-2.18;86.66;95256.97;1792352;80;21261;-88
2021/01/14 04:53:48;;;;;;;5.40;3.55;;;;;;;-2.22;86.70;95253.27;1792424;80;21495;-88
2021/01/14 04:56:18;;;;;;;6.15;3.37;;;;;;;-2.25;86.72;95253.22;1792296;80;21171;-89
2021/01/14 04:58:48;;;;;;;7.33;3.47;;;;;;;-2.25;86.76;95254.52;1792343;80;21293;-89
2021/01/14 05:01:24;;;;;;;7.08;4.05;;;;;;;-2.19;86.89;95259.28;1792363;80;21273;-88
2021/01/14 05:03:55;;;;;;;7.60;3.85;;;;;;;-2.18;86.90;95260.86;1792498;80;21116;-88
2021/01/14 05:06:26;;;;;;;4.95;3.20;;;;;;;-2.18;86.77;95256.97;1792329;80;21123;-88
2021/01/14 05:09:05;;;;;;;7.75;4.25;;;;;;;-2.17;86.74;95262.44;1774626;79;21111;-88
2021/01/14 05:11:49;;;;;;;7.50;4.83;;;;;;;-2.17;86.69;95263.22;1781175;80;21112;-89
2021/01/14 05:14:18;;;;;;;8.20;4.33;;;;;;;-2.17;86.68;95255.95;1791054;80;21245;-89
2021/01/14 05:16:48;;;;;;;5.30;3.58;;;;;;;-2.18;86.64;95263.45;1791906;79;21297;-89
2021/01/14 05:19:15;;;;;;;5.70;3.08;;;;;;;-2.20;86.65;95262.39;1772219;80;21127;-88
2021/01/14 05:21:45;;;;;;;4.40;3.02;;;;;;;-2.16;86.64;95267.91;1754774;80;21118;-88
2021/01/14 05:24:17;;;;;;;5.53;2.98;;;;;;;-2.16;86.65;95262.20;1792872;80;21111;-88
2021/01/14 05:26:45;;;;;;;6.20;3.27;;;;;;;-2.18;86.62;95267.35;1792637;80;21269;-88
2021/01/14 05:29:19;;;;;;;8.53;3.70;;;;;;;-2.23;86.60;95262.08;1792504;79;21460;-89
2021/01/14 05:31:49;;;;;;;3.92;2.62;;;;;;;-2.24;86.64;95261.80;1792565;80;21221;-88
2021/01/14 05:34:18;;;;;;;4.58;3.25;;;;;;;-2.27;86.72;95261.72;1792630;80;21452;-89
2021/01/14 05:37:02;;;;;;;6.22;3.45;;;;;;;-2.30;86.87;95264.78;1792576;80;21163;-88
2021/01/14 05:39:28;;;;;;;5.60;2.62;;;;;;;-2.30;86.88;95265.30;1814895;79;21088;-88
2021/01/14 05:41:55;;;;;;;5.85;3.08;;;;;;;-2.31;86.99;95274.10;1792465;80;21166;-88
2021/01/14 05:47:27;;;;;;;6.62;3.98;;;;;;;-2.29;87.07;95268.17;1817648;79;22520;-87
2021/01/14 05:50:07;;;;;;;7.62;3.90;;;;;;;-2.36;87.08;95270.91;1760112;80;21100;-87
2021/01/14 05:52:34;;;;;;;5.28;3.50;;;;;;;-2.37;87.13;95268.55;1752405;82;21088;-88
2021/01/14 05:55:10;;;;;;;5.78;4.00;;;;;;;-2.37;87.26;95268.03;1752236;81;21619;-88
2021/01/14 05:57:39;;;;;;;5.50;3.30;;;;;;;-2.38;87.23;95274.76;1752392;82;21088;-89
2021/01/14 06:00:14;;;;;;;5.15;3.40;;;;;;;-2.38;87.24;95282.55;1752233;81;21132;-89
2021/01/14 06:02:42;;;;;;;6.85;3.17;;;;;;;-2.37;87.26;95275.03;1752333;81;21131;-88
2021/01/14 06:05:32;;;;;;;9.30;5.03;;;;;;;-2.36;87.26;95276.61;1752174;82;21536;-89
2021/01/14 06:08:02;;;;;;;6.78;3.80;;;;;;;-2.32;87.28;95279.02;1752276;81;21127;-88
2021/01/14 06:10:34;;;;;;;12.20;4.95;;;;;;;-2.27;87.26;95284.30;1752427;82;21100;-88
2021/01/14 06:13:02;;;;;;;7.22;3.90;;;;;;;-2.23;87.24;95284.92;1752272;81;21139;-89
2021/01/14 06:15:29;;;;;;;11.80;6.85;;;;;;;-2.21;87.24;95285.98;1752380;81;21092;-88
2021/01/14 06:18:01;;;;;;;12.13;6.83;;;;;;;-2.17;87.25;95293.59;1752171;81;21127;-88
2021/01/14 06:20:28;;;;;;;9.13;5.10;;;;;;;-2.13;87.25;95293.39;1752221;82;21112;-88
2021/01/14 06:23:00;;;;;;;8.25;4.65;;;;;;;-2.13;87.22;95292.09;1752364;81;21136;-89
2021/01/14 06:25:27;;;;;;;10.20;6.30;;;;;;;-2.12;87.23;95296.27;1752162;82;21122;-88
2021/01/14 06:27:56;;;;;;;10.15;6.03;;;;;;;-2.09;87.26;95297.13;1752311;82;21515;-88
2021/01/14 06:30:23;;;;;;;8.20;4.65;;;;;;;-2.08;87.26;95300.00;1752223;81;21122;-88
2021/01/14 06:33:03;;;;;;;25.05;15.15;;;;;;;-2.07;87.24;95302.88;1734186;82;21095;-88
2021/01/14 06:35:31;;;;;;;;;;;;;;;-2.12;87.25;95301.46;1747517;82;21468;-89
2021/01/14 06:38:03;;;;;;;11.03;5.97;;;;;;;-2.15;87.29;95303.23;1745063;81;20140;-88
2021/01/14 06:40:30;;;;;;;8.18;5.30;;;;;;;-2.21;87.33;95306.75;1739945;82;21132;-88
2021/01/14 06:42:58;;;;;;;9.50;5.53;;;;;;;-2.23;87.40;95315.28;1752232;81;21123;-88
2021/01/14 06:45:31;;;;;;;8.48;5.58;;;;;;;-2.23;87.43;95319.18;1752605;81;21592;-88
2021/01/14 06:50:49;;;;;;;6.95;4.47;;;;;;;-2.11;87.61;95321.23;1877995;76;22557;-87
2021/01/14 06:53:21;;;;;;;7.55;4.67;;;;;;;-2.16;87.58;95320.61;1815547;77;21237;-87
2021/01/14 06:55:49;;;;;;;6.70;4.62;;;;;;;-2.11;87.59;95331.63;1852728;77;21088;-87
2021/01/14 06:58:19;;;;;;;7.62;4.65;;;;;;;-2.08;87.57;95338.95;1833522;76;21121;-87
2021/01/14 07:00:49;;;;;;;7.70;5.05;;;;;;;-2.03;87.61;95335.14;1869233;76;21428;-87
2021/01/14 07:03:20;;;;;;;11.28;5.62;;;;;;;-2.01;87.56;95338.30;1852982;77;21247;-87
2021/01/14 07:05:59;;;;;;;9.08;4.70;;;;;;;-1.97;87.56;95345.92;1852835;77;21237;-88
2021/01/14 07:08:46;;;;;;;8.68;5.12;;;;;;;-1.95;87.54;95346.48;1852727;77;21151;-88
2021/01/14 07:11:19;;;;;;;9.20;5.35;;;;;;;-2.01;87.43;95347.89;1851510;77;21068;-88
2021/01/14 07:13:51;;;;;;;5.97;3.60;;;;;;;-2.04;87.37;95350.95;1852676;77;21104;-88
2021/01/14 07:16:22;;;;;;;8.15;5.20;;;;;;;-2.05;87.46;95356.66;1852896;77;21111;-88
2021/01/14 07:18:51;;;;;;;7.97;5.28;;;;;;;-2.10;87.46;95366.95;1800477;80;21123;-88
2021/01/14 07:21:37;;;;;;;8.98;5.12;;;;;;;-2.13;87.57;95366.09;1793044;80;21088;-88
2021/01/14 07:24:29;;;;;;;12.00;6.12;;;;;;;-2.18;87.70;95371.98;1793158;79;21503;-87
2021/01/14 07:27:02;;;;;;;14.50;7.28;;;;;;;-2.22;87.96;95380.45;1758735;80;21123;-89
2021/01/14 07:29:30;;;;;;;13.72;7.62;;;;;;;-2.24;88.16;95372.11;1792972;80;21141;-88
2021/01/14 07:32:00;;;;;;;9.30;5.20;;;;;;;-2.22;88.32;95389.03;1793027;80;21123;-88
2021/01/14 07:34:43;;;;;;;10.25;4.78;;;;;;;-2.18;88.35;95391.45;1793255;80;21139;-88
2021/01/14 07:37:19;;;;;;;8.88;5.33;;;;;;;-2.16;88.39;95393.81;1792337;79;21080;-88
2021/01/14 07:39:59;;;;;;;8.58;4.92;;;;;;;-2.13;88.25;95390.75;1770941;79;21655;-88
2021/01/14 07:42:33;;;;;;;8.65;4.70;;;;;;;-2.08;88.27;95398.67;1793183;80;21111;-87
2021/01/14 07:45:09;;;;;;;11.85;6.62;;;;;;;-2.05;88.41;95391.71;1793021;80;21111;-88
2021/01/14 07:47:39;;;;;;;10.55;6.75;;;;;;;-2.05;88.37;95399.50;1792592;80;21080;-88
2021/01/14 07:50:29;;;;;;;11.15;6.28;;;;;;;-2.01;88.26;95400.61;1792977;80;21467;-88
2021/01/14 07:52:59;;;;;;;11.75;7.35;;;;;;;-1.97;88.29;95402.23;1793123;80;21131;-88
2021/01/14 07:55:35;;;;;;;11.80;7.50;;;;;;;-1.94;88.20;95405.19;1792927;80;21088;-88
2021/01/14 07:58:20;;;;;;;12.47;7.60;;;;;;;-1.90;88.16;95409.41;1789943;79;21104;-88
2021/01/14 08:01:09;;;;;;;12.47;7.05;;;;;;;-1.88;88.10;95416.46;1778696;80;21064;-88
2021/01/14 08:03:44;;;;;;;10.15;6.70;;;;;;;-1.86;87.94;95421.70;1792536;80;21120;-88
2021/01/14 08:06:30;;;;;;;10.80;6.72;;;;;;;-1.85;87.81;95429.77;1792531;80;21124;-88
2021/01/14 08:09:09;;;;;;;12.68;7.35;;;;;;;-1.84;87.77;95430.56;1785233;79;21515;-88
2021/01/14 08:11:45;;;;;;;8.88;5.62;;;;;;;-1.85;87.71;95438.08;1788952;80;21107;-88
2021/01/14 08:14:22;;;;;;;11.60;7.70;;;;;;;-1.85;87.74;95436.27;1792428;80;21107;-88
2021/01/14 08:16:52;;;;;;;10.05;6.50;;;;;;;-1.85;87.65;95443.27;1792066;80;21172;-88
2021/01/14 08:19:39;;;;;;;11.35;7.03;;;;;;;-1.80;87.65;95448.08;1792536;79;21119;-89
2021/01/14 08:22:13;;;;;;;10.40;6.42;;;;;;;-1.79;87.60;95447.56;1792406;80;21096;-88
2021/01/14 08:24:59;;;;;;;11.05;5.67;;;;;;;-1.74;87.53;95455.96;1792572;79;21116;-88
2021/01/14 08:27:38;;;;;;;9.03;6.22;;;;;;;-1.75;87.45;95454.39;1792424;80;21115;-88
2021/01/14 08:30:16;;;;;;;;;;;;;;;-1.75;87.40;95462.97;1761725;80;21143;-88
2021/01/14 08:32:49;;;;;;;11.63;7.00;;;;;;;-1.69;87.45;95473.77;1791885;80;20147;-87
2021/01/14 08:35:25;;;;;;;11.73;6.62;;;;;;;-1.63;87.49;95463.73;1792353;80;21242;-87
2021/01/14 08:37:58;;;;;;;11.70;6.53;;;;;;;-1.56;87.47;95473.48;1792445;79;21471;-88
2021/01/14 08:40:32;;;;;;;11.75;6.58;;;;;;;-1.50;87.42;95482.19;1792505;80;21091;-87
2021/01/14 08:43:13;;;;;;;9.65;5.53;;;;;;;-1.45;87.34;95483.58;1792451;79;21257;-87
2021/01/14 08:45:56;;;;;;;12.88;7.33;;;;;;;-1.46;87.12;95485.11;1792421;80;21447;-87
2021/01/14 08:48:32;;;;;;;10.48;6.28;;;;;;;-1.49;87.08;95482.46;1767969;80;21277;-87
2021/01/14 08:51:03;;;;;;;11.78;6.78;;;;;;;-1.44;87.08;95490.34;1802753;79;21536;-87
2021/01/14 08:53:35;;;;;;;13.20;7.42;;;;;;;-1.40;87.11;95487.59;1772696;80;21107;-87
2021/01/14 08:56:18;;;;;;;11.38;7.08;;;;;;;-1.37;87.06;95496.22;1803963;79;21114;-87
2021/01/14 08:58:50;;;;;;;11.80;6.70;;;;;;;-1.37;87.00;95509.73;1772668;80;21487;-87
2021/01/14 09:01:24;;;;;;;45.20;17.67;;;;;;;-1.37;86.87;95513.13;1804245;79;21462;-87
2021/01/14 09:03:57;;;;;;;13.38;8.23;;;;;;;-1.41;86.81;95509.38;1772763;80;21111;-87
2021/01/14 09:06:39;;;;;;;11.78;7.30;;;;;;;-1.48;86.79;95524.84;1804000;79;21487;-87
2021/01/14 09:09:15;;;;;;;13.15;7.97;;;;;;;-1.53;86.87;95525.53;1772545;80;21199;-87
2021/01/14 09:11:46;;;;;;;13.88;8.60;;;;;;;-1.54;86.95;95521.35;1803824;79;21242;-88
2021/01/14 09:14:18;;;;;;;13.18;8.53;;;;;;;-1.56;87.28;95528.05;1757614;81;21123;-87
2021/01/14 09:16:48;;;;;;;15.40;9.40;;;;;;;-1.48;87.52;95532.63;1803903;79;21075;-88
2021/01/14 09:19:23;;;;;;;9.40;6.03;;;;;;;-1.48;87.43;95532.13;1772586;80;21490;-88
2021/01/14 09:21:50;;;;;;;13.08;9.05;;;;;;;-1.54;87.45;95535.65;1803879;79;21135;-87
2021/01/14 09:24:18;;;;;;;11.35;7.50;;;;;;;-1.63;87.50;95550.78;1803870;79;21284;-87
2021/01/14 09:26:50;;;;;;;7.37;4.78;;;;;;;-1.62;87.60;95548.98;1772796;80;21084;-87
2021/01/14 09:29:20;;;;;;;15.68;9.68;;;;;;;-1.62;87.71;95547.67;1803999;79;21634;-87
2021/01/14 09:31:47;;;;;;;15.70;9.13;;;;;;;-1.65;87.74;95557.23;1773034;80;21110;-87
2021/01/14 09:34:15;;;;;;;12.70;9.25;;;;;;;-1.61;87.86;95562.25;1803897;79;21233;-87
2021/01/14 09:36:43;;;;;;;11.80;7.22;;;;;;;-1.55;87.86;95555.65;1772499;80;21122;-87
2021/01/14 09:39:16;;;;;;;17.15;9.75;;;;;;;-1.48;87.73;95558.63;1781504;79;21322;-87
2021/01/14 09:41:44;;;;;;;12.00;8.00;;;;;;;-1.52;87.59;95564.28;1772561;80;21102;-87
2021/01/14 09:44:15;;;;;;;13.72;8.40;;;;;;;-1.45;87.55;95564.15;1803818;79;21502;-87
2021/01/14 09:46:46;;;;;;;14.40;9.03;;;;;;;-1.42;87.50;95574.08;1772420;80;21083;-88
2021/01/14 09:49:19;;;;;;;11.63;7.10;;;;;;;-1.27;87.51;95567.11;1803798;79;21180;-87
2021/01/14 09:51:47;;;;;;;14.40;9.33;;;;;;;-1.15;87.40;95570.48;1772694;80;21140;-87
2021/01/14 09:54:14;;;;;;;12.00;7.40;;;;;;;-1.13;87.12;95571.55;1797514;78;21172;-87
2021/01/14 09:56:53;;;;;;;13.23;8.67;;;;;;;-1.11;86.91;95569.53;1804134;79;21661;-87
2021/01/14 09:59:42;;;;;;;12.73;7.40;;;;;;;-1.04;86.94;95576.68;1782400;79;21188;-87
2021/01/14 10:02:30;;;;;;;15.13;10.43;;;;;;;-0.85;86.97;95569.48;1785024;79;21160;-88
2021/01/14 10:05:01;;;;;;;13.75;8.48;;;;;;;-0.85;86.97;95569.48;1787425;80;21127;-87
2021/01/14 10:07:33;;;;;;;7.83;5.90;;;;;;;-0.88;86.43;95575.16;1803928;79;21225;-87
2021/01/14 10:10:01;;;;;;;11.85;8.15;;;;;;;-0.93;86.39;95587.57;1770815;81;21556;-87
2021/01/14 10:12:32;;;;;;;15.40;9.03;;;;;;;-1.05;86.40;95580.30;1787507;79;21238;-87
2021/01/14 10:15:11;;;;;;;14.50;9.05;;;;;;;-1.12;86.79;95586.16;1792762;79;21510;-87
2021/01/14 10:17:41;;;;;;;15.25;9.48;;;;;;;-1.09;87.21;95592.19;1787196;79;21244;-87
2021/01/14 10:20:12;;;;;;;10.95;6.47;;;;;;;-1.05;87.33;95592.01;1771889;80;21156;-87
2021/01/14 10:22:53;;;;;;;13.60;5.60;;;;;;;-1.02;87.38;95595.44;1767991;80;21257;-87
2021/01/14 10:25:22;;;;;;;13.28;8.38;;;;;;;-1.06;86.88;95591.73;1787621;80;21134;-87
2021/01/14 10:28:07;;;;;;;15.98;8.78;;;;;;;-1.11;86.89;95594.23;1787571;80;21084;-87
2021/01/14 10:30:40;;;;;;;10.30;6.72;;;;;;;-1.00;87.10;95589.50;1787580;80;21112;-88
2021/01/14 10:33:08;;;;;;;14.47;8.30;;;;;;;-0.92;86.94;95596.95;1787951;80;21123;-88
2021/01/14 10:35:38;;;;;;;15.45;7.47;;;;;;;-0.98;86.59;95592.17;1787676;80;21124;-87
2021/01/14 10:38:12;;;;;;;14.15;8.80;;;;;;;-0.88;86.59;95599.37;1778782;80;21497;-88
2021/01/14 10:40:51;;;;;;;15.88;9.65;;;;;;;-0.88;86.59;95599.37;1776639;80;21104;-88
2021/01/14 10:43:34;;;;;;;13.80;8.20;;;;;;;-0.81;86.74;95606.55;1787769;80;21077;-88
2021/01/14 10:46:02;;;;;;;12.25;7.58;;;;;;;-0.85;86.47;95604.09;1787536;80;21124;-88
2021/01/14 10:48:42;;;;;;;14.98;8.78;;;;;;;-0.94;86.36;95609.41;1787105;80;21185;-87
2021/01/14 10:51:09;;;;;;;17.77;8.58;;;;;;;-1.05;86.21;95615.41;1787703;80;21127;-88
2021/01/14 10:53:38;;;;;;;10.60;6.65;;;;;;;-1.12;86.28;95620.75;1787522;80;21108;-88
2021/01/14 10:56:09;;;;;;;11.65;7.67;;;;;;;-1.17;86.34;95615.43;1787547;80;21479;-88
2021/01/14 10:58:40;;;;;;;9.25;6.12;;;;;;;-1.22;86.41;95618.73;1787529;80;21164;-88
2021/01/14 11:01:22;;;;;;;11.95;5.87;;;;;;;-1.23;86.59;95618.45;1787613;80;21111;-88
2021/01/14 11:03:52;;;;;;;13.48;7.92;;;;;;;-1.31;86.50;95627.88;1787721;80;21131;-88
2021/01/14 11:06:32;;;;;;;10.13;6.33;;;;;;;-1.31;86.65;95639.58;1787905;80;21139;-88
2021/01/14 11:09:08;;;;;;;13.20;7.70;;;;;;;-1.21;86.78;95635.11;1787671;80;21159;-87
2021/01/14 11:11:38;;;;;;;11.05;7.83;;;;;;;-1.16;86.92;95631.31;1787569;80;21112;-87
2021/01/14 11:14:05;;;;;;;11.83;6.97;;;;;;;-1.21;86.85;95636.42;1787888;80;21439;-87
2021/01/14 11:16:33;;;;;;;12.85;8.25;;;;;;;-1.20;86.90;95641.38;1786999;80;21456;-87
2021/01/14 11:19:02;;;;;;;14.18;8.50;;;;;;;-1.13;86.92;95641.77;1787575;80;21558;-87
2021/01/14 11:21:32;;;;;;;11.08;5.50;;;;;;;-1.11;86.89;95641.05;1787595;80;21119;-87
2021/01/14 11:24:01;;;;;;;13.75;8.40;;;;;;;-1.04;86.96;95639.10;1787671;80;21091;-87
2021/01/14 11:26:29;;;;;;;11.70;7.90;;;;;;;-1.06;86.79;95639.34;1787690;80;21475;-88
2021/01/14 11:28:56;;;;;;;13.48;8.50;;;;;;;-1.08;86.64;95647.09;1787534;80;21505;-88
2021/01/14 11:31:27;;;;;;;11.50;7.42;;;;;;;-1.08;86.57;95644.48;1787571;80;21111;-87
2021/01/14 11:33:55;;;;;;;14.58;8.10;;;;;;;-1.10;86.44;95640.03;1787635;80;21463;-87
2021/01/14 11:36:23;;;;;;;13.90;7.83;;;;;;;-1.20;86.41;95649.70;1787680;80;21634;-87
2021/01/14 11:38:52;;;;;;;13.05;7.90;;;;;;;-1.26;86.51;95642.31;1768875;80;21223;-87
2021/01/14 11:41:25;;;;;;;16.30;9.00;;;;;;;-1.23;86.68;95651.45;1785437;80;21115;-87
2021/01/14 11:43:52;;;;;;;14.10;8.95;;;;;;;-1.26;86.60;95654.01;1787685;80;21076;-88
2021/01/14 11:46:22;;;;;;;12.98;7.75;;;;;;;-1.23;86.69;95656.66;1787605;80;21130;-88
2021/01/14 11:48:49;;;;;;;18.33;8.47;;;;;;;-1.20;86.69;95658.29;1772476;80;21112;-87
2021/01/14 11:51:18;;;;;;;18.27;9.58;;;;;;;-1.23;86.61;95662.65;1785708;80;21281;-87
2021/01/14 11:53:45;;;;;;;12.75;7.47;;;;;;;-1.23;86.66;95657.45;1784958;80;21519;-87
2021/01/14 11:56:16;;;;;;;9.83;6.30;;;;;;;-1.27;86.67;95661.53;1785002;80;21258;-87